createdAt,value
2018-11-01T00:00:24.339Z,8.04
2018-11-01T00:04:31.349Z,8.09
2018-11-01T00:08:38.041Z,8.12
2018-11-01T00:12:45.228Z,8.18
2018-11-01T00:16:51.946Z,8.17
2018-11-01T00:20:58.593Z,8.12
2018-11-01T00:25:05.565Z,8.12
2018-11-01T00:29:12.107Z,8.16
2018-11-01T00:33:18.925Z,8.17
2018-11-01T00:37:25.617Z,8.13
2018-11-01T00:41:32.261Z,8.12
2018-11-01T00:45:38.992Z,8.10
2018-11-01T00:49:46.101Z,8.22
2018-11-01T00:53:52.835Z,8.24
2018-11-01T00:57:59.489Z,8.19
2018-11-01T01:02:06.829Z,8.17
2018-11-01T01:06:13.514Z,8.17
2018-11-01T01:10:20.179Z,8.17
2018-11-01T01:14:27.021Z,8.14
2018-11-01T01:18:33.814Z,8.15
2018-11-01T01:22:41.050Z,8.13
2018-11-01T01:26:49.034Z,8.15
2018-11-01T01:30:55.691Z,8.16
2018-11-01T01:35:02.599Z,8.07
2018-11-01T01:39:11.125Z,8.12
2018-11-01T01:43:17.825Z,8.15
2018-11-01T01:47:24.522Z,8.11
2018-11-01T01:51:31.239Z,8.20
2018-11-01T01:55:38.019Z,8.24
2018-11-01T01:59:44.712Z,8.25
2018-11-01T02:03:51.493Z,8.32
2018-11-01T02:07:58.102Z,8.21
2018-11-01T02:12:04.816Z,8.15
2018-11-01T02:16:11.738Z,8.19
2018-11-01T02:20:19.575Z,8.12
2018-11-01T02:24:26.270Z,8.09
2018-11-01T02:28:32.952Z,8.04
2018-11-01T02:32:39.950Z,8.07
2018-11-01T02:36:46.627Z,8.06
2018-11-01T02:40:53.340Z,7.95
2018-11-01T02:45:00.039Z,7.98
2018-11-01T02:49:07.403Z,7.93
2018-11-01T02:53:14.058Z,7.83
2018-11-01T02:57:20.968Z,7.75
2018-11-01T03:01:27.672Z,7.70
2018-11-01T03:05:34.321Z,7.71
2018-11-01T03:09:40.982Z,7.65
2018-11-01T03:13:47.761Z,7.64
2018-11-01T03:17:54.501Z,7.68
2018-11-01T03:22:01.251Z,7.66
2018-11-01T03:26:07.941Z,7.71
2018-11-01T03:30:14.775Z,7.68
2018-11-01T03:34:21.390Z,7.59
2018-11-01T03:38:28.406Z,7.55
2018-11-01T03:42:35.014Z,7.52
2018-11-01T03:46:42.555Z,7.61
2018-11-01T03:50:49.248Z,7.62
2018-11-01T03:54:56.015Z,7.50
2018-11-01T03:59:02.713Z,7.55
2018-11-01T04:03:09.487Z,7.38
2018-11-01T04:07:16.295Z,7.39
2018-11-01T04:11:22.989Z,7.28
2018-11-01T04:15:29.806Z,7.22
2018-11-01T04:19:36.497Z,7.24
2018-11-01T04:23:43.215Z,7.23
2018-11-01T04:27:49.900Z,7.18
2018-11-01T04:31:56.611Z,7.11
2018-11-01T04:36:03.478Z,7.05
2018-11-01T04:40:10.766Z,7.03
2018-11-01T04:44:17.451Z,6.99
2018-11-01T04:48:24.185Z,6.97
2018-11-01T04:52:30.917Z,6.94
2018-11-01T04:56:37.633Z,6.86
2018-11-01T05:00:44.348Z,6.87
2018-11-01T05:04:51.050Z,6.85
2018-11-01T05:08:57.719Z,6.83
2018-11-01T05:13:05.541Z,6.78
2018-11-01T05:17:12.320Z,6.74
2018-11-01T05:21:18.920Z,6.73
2018-11-01T05:25:25.646Z,6.80
2018-11-01T05:29:32.339Z,6.73
2018-11-01T05:33:38.952Z,6.79
2018-11-01T05:37:45.679Z,6.84
2018-11-01T05:41:52.419Z,6.84
2018-11-01T05:45:59.630Z,6.84
2018-11-01T05:50:06.547Z,6.88
2018-11-01T05:54:14.015Z,6.91
2018-11-01T05:58:20.880Z,7.03
2018-11-01T06:02:34.555Z,7.00
2018-11-01T06:06:41.795Z,7.02
2018-11-01T06:10:48.551Z,6.96
2018-11-01T06:14:55.172Z,7.06
2018-11-01T06:19:01.856Z,7.09
2018-11-01T06:23:08.850Z,7.51
2018-11-01T06:27:15.487Z,7.53
2018-11-01T06:31:22.190Z,7.76
2018-11-01T06:35:33.947Z,7.70
2018-11-01T06:39:40.673Z,7.57
2018-11-01T06:43:47.410Z,7.52
2018-11-01T06:47:56.722Z,7.62
2018-11-01T06:52:03.508Z,7.51
2018-11-01T06:56:10.235Z,7.50
2018-11-01T07:00:17.315Z,7.49
2018-11-01T07:04:24.327Z,7.43
2018-11-01T07:08:33.049Z,7.37
2018-11-01T07:12:42.945Z,7.36
2018-11-01T07:16:50.345Z,7.34
2018-11-01T07:20:58.377Z,7.41
2018-11-01T07:25:05.395Z,7.40
2018-11-01T07:29:12.147Z,7.58
2018-11-01T07:33:18.983Z,7.46
2018-11-01T07:37:33.225Z,7.42
2018-11-01T07:41:43.300Z,7.46
2018-11-01T07:45:50.810Z,7.51
2018-11-01T07:49:57.772Z,7.45
2018-11-01T07:54:04.618Z,7.50
2018-11-01T07:58:11.347Z,7.35
2018-11-01T08:02:18.317Z,7.37
2018-11-01T08:06:25.072Z,7.36
2018-11-01T08:10:31.881Z,7.52
2018-11-01T08:14:38.891Z,7.55
2018-11-01T08:18:45.539Z,7.70
2018-11-01T08:22:52.233Z,7.77
2018-11-01T08:26:58.915Z,7.82
2018-11-01T08:31:05.702Z,7.98
2018-11-01T08:35:12.790Z,8.07
2018-11-01T08:39:19.645Z,7.97
2018-11-01T08:43:26.423Z,7.97
2018-11-01T08:47:33.075Z,7.83
2018-11-01T08:51:39.746Z,7.86
2018-11-01T08:55:46.428Z,7.78
2018-11-01T08:59:53.161Z,7.87
2018-11-01T09:03:59.908Z,7.85
2018-11-01T09:08:06.879Z,7.91
2018-11-01T09:12:13.661Z,7.91
2018-11-01T09:16:20.389Z,8.16
2018-11-01T09:20:27.083Z,8.00
2018-11-01T09:24:33.790Z,8.28
2018-11-01T09:28:40.618Z,8.22
2018-11-01T09:32:47.446Z,8.15
2018-11-01T09:36:54.061Z,8.46
2018-11-01T09:41:00.749Z,8.52
2018-11-01T09:45:07.916Z,8.64
2018-11-01T09:49:14.610Z,8.74
2018-11-01T09:53:21.291Z,8.60
2018-11-01T09:57:27.990Z,8.84
2018-11-01T10:01:34.691Z,8.92
2018-11-01T10:05:41.428Z,9.10
2018-11-01T10:09:48.130Z,9.05
2018-11-01T10:13:54.794Z,9.28
2018-11-01T10:18:01.981Z,9.17
2018-11-01T10:22:08.435Z,9.08
2018-11-01T10:26:15.060Z,9.22
2018-11-01T10:30:23.787Z,9.20
2018-11-01T10:34:30.601Z,9.31
2018-11-01T10:38:37.176Z,9.35
2018-11-01T10:42:43.883Z,9.16
2018-11-01T10:46:50.561Z,8.86
2018-11-01T10:50:57.877Z,8.98
2018-11-01T10:55:04.557Z,8.95
2018-11-01T10:59:11.270Z,9.09
2018-11-01T11:03:17.985Z,9.11
2018-11-01T11:07:25.120Z,9.26
2018-11-01T11:11:31.826Z,9.55
2018-11-01T11:15:38.511Z,9.64
2018-11-01T11:19:45.304Z,9.64
2018-11-01T11:23:52.043Z,9.68
2018-11-01T11:27:58.716Z,9.79
2018-11-01T11:32:05.421Z,9.74
2018-11-01T11:36:12.096Z,9.98
2018-11-01T11:40:19.126Z,9.88
2018-11-01T11:44:25.941Z,10.01
2018-11-01T11:48:32.637Z,9.93
2018-11-01T11:52:39.252Z,9.94
2018-11-01T11:56:46.131Z,10.06
2018-11-01T12:00:52.799Z,9.89
2018-11-01T12:04:59.633Z,10.03
2018-11-01T12:09:08.261Z,10.26
2018-11-01T12:13:14.883Z,10.02
2018-11-01T12:17:21.672Z,10.11
2018-11-01T12:21:28.375Z,10.19
2018-11-01T12:25:35.210Z,10.18
2018-11-01T12:29:44.113Z,10.12
2018-11-01T12:33:50.783Z,10.16
2018-11-01T12:37:57.536Z,10.12
2018-11-01T12:42:04.390Z,10.11
2018-11-01T12:46:10.970Z,10.29
2018-11-01T12:50:17.719Z,9.99
2018-11-01T12:54:24.702Z,9.95
2018-11-01T12:58:31.385Z,9.96
2018-11-01T13:02:38.264Z,9.82
2018-11-01T13:06:44.926Z,9.91
2018-11-01T13:10:51.780Z,10.06
2018-11-01T13:14:58.888Z,9.98
2018-11-01T13:19:06.189Z,9.90
2018-11-01T13:23:12.841Z,9.78
2018-11-01T13:27:22.254Z,9.70
2018-11-01T13:31:28.928Z,9.69
2018-11-01T13:35:35.656Z,9.90
2018-11-01T13:39:42.370Z,10.06
2018-11-01T13:43:49.038Z,10.10
2018-11-01T13:47:55.839Z,10.29
2018-11-01T13:52:02.469Z,10.38
2018-11-01T13:56:09.161Z,10.21
2018-11-01T14:00:16.658Z,10.13
2018-11-01T14:04:23.331Z,10.42
2018-11-01T14:08:30.867Z,10.45
2018-11-01T14:12:37.727Z,10.35
2018-11-01T14:16:44.439Z,10.46
2018-11-01T14:20:51.511Z,10.49
2018-11-01T14:24:58.486Z,10.46
2018-11-01T14:33:11.917Z,10.50
2018-11-01T14:37:39.659Z,10.45
2018-11-01T14:41:46.513Z,10.40
2018-11-01T14:45:53.197Z,10.50
2018-11-01T14:50:00.196Z,10.38
2018-11-01T14:54:07.832Z,10.37
2018-11-01T14:58:14.881Z,10.52
2018-11-01T15:02:20.322Z,10.50
2018-11-01T15:06:27.387Z,10.47
2018-11-01T15:10:34.115Z,10.43
2018-11-01T15:14:41.992Z,10.56
2018-11-01T15:18:48.725Z,10.45
2018-11-01T15:22:55.501Z,10.36
2018-11-01T15:27:02.648Z,10.29
2018-11-01T15:31:12.187Z,10.24
2018-11-01T15:35:18.935Z,10.23
2018-11-01T15:39:26.084Z,10.29
2018-11-01T15:43:38.673Z,10.21
2018-11-01T15:47:45.432Z,10.12
2018-11-01T15:51:52.321Z,10.08
2018-11-01T15:55:59.385Z,10.07
2018-11-01T16:00:07.606Z,10.11
2018-11-01T16:04:14.399Z,10.03
2018-11-01T16:08:21.270Z,9.86
2018-11-01T16:12:28.010Z,9.79
2018-11-01T16:16:35.042Z,9.66
2018-11-01T16:20:41.733Z,9.68
2018-11-01T16:24:48.483Z,9.53
2018-11-01T16:28:55.298Z,9.53
2018-11-01T16:33:02.126Z,9.48
2018-11-01T16:37:08.889Z,9.36
2018-11-01T16:41:15.801Z,9.40
2018-11-01T16:45:22.582Z,9.46
2018-11-01T16:49:29.367Z,9.44
2018-11-01T16:53:36.169Z,9.38
2018-11-01T16:57:42.987Z,9.32
2018-11-01T17:01:49.777Z,9.25
2018-11-01T17:05:56.512Z,9.27
2018-11-01T17:10:04.015Z,9.14
2018-11-01T17:14:11.412Z,9.02
2018-11-01T17:18:18.347Z,8.94
2018-11-01T17:22:25.037Z,8.98
2018-11-01T17:26:31.988Z,8.83
2018-11-01T17:30:38.793Z,8.95
2018-11-01T17:34:45.514Z,8.88
2018-11-01T17:38:52.444Z,8.86
2018-11-01T17:42:59.285Z,8.82
2018-11-01T17:47:05.976Z,8.77
2018-11-01T17:51:12.837Z,8.78
2018-11-01T17:55:19.634Z,8.76
2018-11-01T17:59:26.276Z,8.72
2018-11-01T18:03:33.010Z,8.68
2018-11-01T18:07:40.544Z,8.58
2018-11-01T18:11:47.305Z,8.54
2018-11-01T18:15:54.152Z,8.60
2018-11-01T18:20:00.882Z,8.56
2018-11-01T18:24:07.674Z,8.59
2018-11-01T18:28:14.469Z,8.54
2018-11-01T18:32:21.227Z,8.49
2018-11-01T18:36:28.039Z,8.42
2018-11-01T18:40:34.799Z,8.70
2018-11-01T18:44:41.672Z,8.67
2018-11-01T18:48:50.907Z,8.74
2018-11-01T18:52:58.161Z,8.53
2018-11-01T18:57:04.999Z,8.55
2018-11-01T19:01:11.884Z,8.60
2018-11-01T19:09:42.417Z,8.15
2018-11-01T19:13:44.815Z,8.10
2018-11-01T19:17:52.073Z,8.08
2018-11-01T19:21:59.043Z,8.04
2018-11-01T19:26:06.406Z,8.04
2018-11-01T19:30:20.973Z,8.02
2018-11-01T19:34:40.254Z,8.03
2018-11-01T19:38:57.441Z,7.90
2018-11-01T19:43:45.038Z,7.92
2018-11-01T19:48:42.393Z,7.93
2018-11-01T19:52:49.354Z,7.94
2018-11-01T19:56:56.182Z,7.74
2018-11-01T20:01:02.945Z,7.64
2018-11-01T20:05:11.022Z,7.49
2018-11-01T20:09:18.491Z,7.43
2018-11-01T20:13:29.550Z,7.25
2018-11-01T20:17:36.244Z,7.02
2018-11-01T20:21:44.234Z,7.08
2018-11-01T20:25:56.689Z,7.07
2018-11-01T20:30:14.266Z,7.22
2018-11-01T20:34:24.643Z,7.14
2018-11-01T20:38:35.298Z,6.96
2018-11-01T20:42:43.511Z,7.16
2018-11-01T20:46:50.409Z,7.33
2018-11-01T20:50:57.279Z,7.34
2018-11-01T20:55:04.102Z,7.17
2018-11-01T20:59:13.348Z,7.07
2018-11-01T21:03:20.496Z,7.10
2018-11-01T21:07:27.329Z,7.04
2018-11-01T21:11:34.294Z,7.46
2018-11-01T21:15:42.159Z,7.32
2018-11-01T21:19:49.080Z,7.45
2018-11-01T21:23:55.885Z,7.31
2018-11-01T21:28:02.533Z,7.35
2018-11-01T21:32:10.015Z,7.59
2018-11-01T21:36:16.797Z,7.60
2018-11-01T21:40:23.539Z,7.65
2018-11-01T21:44:30.322Z,7.65
2018-11-01T21:48:37.079Z,7.67
2018-11-01T21:52:43.915Z,7.55
2018-11-01T21:56:50.563Z,7.67
2018-11-01T22:00:57.270Z,7.73
2018-11-01T22:05:04.030Z,7.90
2018-11-01T22:09:10.763Z,7.92
2018-11-01T22:13:17.462Z,8.04
2018-11-01T22:17:24.231Z,8.05
2018-11-01T22:21:31.244Z,7.86
2018-11-01T22:25:37.947Z,7.97
2018-11-01T22:29:44.749Z,8.07
2018-11-01T22:33:51.496Z,8.13
2018-11-01T22:37:58.208Z,8.10
2018-11-01T22:42:07.471Z,7.86
2018-11-01T22:46:14.227Z,7.92
2018-11-01T22:50:20.953Z,7.87
2018-11-01T22:54:27.679Z,8.04
2018-11-01T22:58:34.402Z,8.09
2018-11-01T23:02:41.278Z,8.05
2018-11-01T23:06:48.129Z,7.96
2018-11-01T23:10:54.741Z,7.97
2018-11-01T23:15:01.515Z,7.86
2018-11-01T23:19:08.329Z,7.57
2018-11-01T23:23:15.113Z,7.64
2018-11-01T23:27:21.829Z,7.69
2018-11-01T23:31:28.540Z,7.52
2018-11-01T23:35:35.315Z,7.46
2018-11-01T23:39:59.264Z,7.55
2018-11-01T23:44:23.479Z,7.47
2018-11-01T23:48:28.964Z,7.51
2018-11-01T23:52:35.672Z,7.48
2018-11-01T23:56:42.485Z,7.65
